createdAt,value
2019-03-19T00:01:31.040Z,9.07
2019-03-19T00:03:59.697Z,7.20
2019-03-19T00:06:28.656Z,7.40
2019-03-19T00:08:57.336Z,12.43
2019-03-19T00:11:25.964Z,8.30
2019-03-19T00:13:55.042Z,10.47
2019-03-19T00:16:27.967Z,9.00
2019-03-19T00:18:57.063Z,7.33
2019-03-19T00:21:25.803Z,6.77
2019-03-19T00:23:54.608Z,11.00
2019-03-19T00:26:23.336Z,10.47
2019-03-19T00:28:51.915Z,13.43
2019-03-19T00:31:20.577Z,10.43
2019-03-19T00:33:49.143Z,10.30
2019-03-19T00:36:17.752Z,6.60
2019-03-19T00:38:46.409Z,10.83
2019-03-19T00:41:15.127Z,6.03
2019-03-19T00:43:43.763Z,11.20
2019-03-19T00:46:12.441Z,6.37
2019-03-19T00:48:41.049Z,9.37
2019-03-19T00:51:09.689Z,8.27
2019-03-19T00:53:38.489Z,6.33
2019-03-19T00:56:07.079Z,12.70
2019-03-19T00:58:35.742Z,8.20
2019-03-19T01:01:07.311Z,9.90
2019-03-19T01:03:35.996Z,10.70
2019-03-19T01:06:04.979Z,10.30
2019-03-19T01:08:33.586Z,9.37
2019-03-19T01:11:02.267Z,13.63
2019-03-19T01:13:30.851Z,7.40
2019-03-19T01:15:59.641Z,9.67
2019-03-19T01:18:28.313Z,8.83
2019-03-19T01:20:56.909Z,11.67
2019-03-19T01:23:25.496Z,11.00
2019-03-19T01:25:55.634Z,11.43
2019-03-19T01:28:24.553Z,9.87
2019-03-19T01:30:53.398Z,8.50
2019-03-19T01:33:22.029Z,8.60
2019-03-19T01:35:50.637Z,10.07
2019-03-19T01:38:19.221Z,5.00
2019-03-19T01:40:47.930Z,14.47
2019-03-19T01:43:19.552Z,8.57
2019-03-19T01:45:48.146Z,7.37
2019-03-19T01:48:17.936Z,9.07
2019-03-19T01:50:46.557Z,14.50
2019-03-19T01:53:15.343Z,8.53
2019-03-19T01:55:43.933Z,9.13
2019-03-19T01:58:12.515Z,5.63
2019-03-19T02:00:41.193Z,6.67
2019-03-19T02:03:10.029Z,10.77
2019-03-19T02:05:38.722Z,7.47
2019-03-19T02:08:07.307Z,12.33
2019-03-19T02:10:35.899Z,11.40
2019-03-19T02:13:04.605Z,9.63
2019-03-19T02:15:33.396Z,6.47
2019-03-19T02:18:04.490Z,9.63
2019-03-19T02:20:33.204Z,8.10
2019-03-19T02:23:04.490Z,12.17
2019-03-19T02:25:32.417Z,11.37
2019-03-19T02:28:01.014Z,7.47
2019-03-19T02:30:29.697Z,15.50
2019-03-19T02:32:58.816Z,8.43
2019-03-19T02:35:27.390Z,9.93
2019-03-19T02:37:56.054Z,16.37
2019-03-19T02:40:24.920Z,8.43
2019-03-19T02:42:53.529Z,15.83
2019-03-19T02:45:22.184Z,17.77
2019-03-19T02:47:50.775Z,10.30
2019-03-19T02:50:19.433Z,10.80
2019-03-19T02:52:48.012Z,9.67
2019-03-19T02:55:16.907Z,14.07
2019-03-19T02:57:45.646Z,10.23
2019-03-19T03:00:15.647Z,14.33
2019-03-19T03:02:44.253Z,7.53
2019-03-19T03:05:13.058Z,13.20
2019-03-19T03:07:41.625Z,8.57
2019-03-19T03:10:13.000Z,11.23
2019-03-19T03:12:41.603Z,13.20
2019-03-19T03:15:10.368Z,6.17
2019-03-19T03:17:39.015Z,9.77
2019-03-19T03:20:07.623Z,9.10
2019-03-19T03:22:36.315Z,10.83
2019-03-19T03:25:05.432Z,7.13
2019-03-19T03:27:34.035Z,11.40
2019-03-19T03:30:04.029Z,8.77
2019-03-19T03:32:32.682Z,11.97
2019-03-19T03:35:01.295Z,14.13
2019-03-19T03:37:29.922Z,8.00
2019-03-19T03:39:58.515Z,12.10
2019-03-19T03:42:27.120Z,7.53
2019-03-19T03:44:55.721Z,11.73
2019-03-19T03:47:24.386Z,9.43
2019-03-19T03:49:52.990Z,12.33
2019-03-19T03:52:21.597Z,13.57
2019-03-19T03:54:50.201Z,13.90
2019-03-19T03:57:18.795Z,18.87
2019-03-19T03:59:47.375Z,11.57
2019-03-19T04:02:17.609Z,12.20
2019-03-19T04:04:46.198Z,12.77
2019-03-19T04:07:14.905Z,12.00
2019-03-19T04:09:43.518Z,6.87
2019-03-19T04:12:18.601Z,12.60
2019-03-19T04:14:47.201Z,8.73
2019-03-19T04:17:18.606Z,12.83
2019-03-19T04:19:47.187Z,12.70
2019-03-19T04:22:17.936Z,11.93
2019-03-19T04:24:46.520Z,24.53
2019-03-19T04:27:16.785Z,14.77
2019-03-19T04:29:45.498Z,15.13
2019-03-19T04:32:26.781Z,16.20
2019-03-19T04:34:44.437Z,22.70
2019-03-19T04:37:13.091Z,16.93
2019-03-19T04:39:41.691Z,21.27
2019-03-19T04:42:10.374Z,15.67
2019-03-19T04:44:38.971Z,13.53
2019-03-19T04:47:07.578Z,18.40
2019-03-19T04:49:36.279Z,14.37
2019-03-19T04:52:05.008Z,15.27
2019-03-19T04:54:33.756Z,19.37
2019-03-19T04:57:02.436Z,13.90
2019-03-19T04:59:31.061Z,26.53
2019-03-19T05:01:59.652Z,23.70
2019-03-19T05:04:28.300Z,24.50
2019-03-19T05:06:56.892Z,23.63
2019-03-19T05:09:25.482Z,21.20
2019-03-19T05:11:54.269Z,13.13
2019-03-19T05:14:22.861Z,13.47
2019-03-19T05:16:51.457Z,13.90
2019-03-19T05:19:20.036Z,16.73
2019-03-19T05:21:48.618Z,15.23
2019-03-19T05:24:19.935Z,13.60
2019-03-19T05:26:48.542Z,12.17
2019-03-19T05:29:20.477Z,19.37
2019-03-19T05:31:49.055Z,17.20
2019-03-19T05:34:17.637Z,32.80
2019-03-19T05:36:46.216Z,35.50
2019-03-19T05:39:14.990Z,20.10
2019-03-19T05:41:43.633Z,36.87
2019-03-19T05:44:12.276Z,41.20
2019-03-19T05:46:40.891Z,24.43
2019-03-19T05:49:09.482Z,20.17
2019-03-19T05:51:38.169Z,27.37
2019-03-19T05:54:07.012Z,33.70
2019-03-19T05:56:35.624Z,40.57
2019-03-19T05:59:05.632Z,22.20
2019-03-19T06:01:34.342Z,19.57
2019-03-19T06:04:03.107Z,26.50
2019-03-19T06:06:31.744Z,26.90
2019-03-19T06:09:00.373Z,39.23
2019-03-19T06:11:29.009Z,46.33
2019-03-19T06:13:57.890Z,50.30
2019-03-19T06:16:26.500Z,39.37
2019-03-19T06:18:55.106Z,41.93
2019-03-19T06:21:23.801Z,38.47
2019-03-19T06:23:52.437Z,36.10
2019-03-19T06:26:21.166Z,27.87
2019-03-19T06:28:49.934Z,32.97
2019-03-19T06:31:18.588Z,28.40
2019-03-19T06:33:48.242Z,32.83
2019-03-19T06:36:20.079Z,27.83
2019-03-19T06:38:48.961Z,38.60
2019-03-19T06:41:17.562Z,34.60
2019-03-19T06:43:46.247Z,37.23
2019-03-19T06:46:17.933Z,30.93
2019-03-19T06:48:46.689Z,29.87
2019-03-19T06:51:16.368Z,26.37
2019-03-19T06:53:45.315Z,40.00
2019-03-19T06:59:19.540Z,42.00
2019-03-19T07:01:48.146Z,37.87
2019-03-19T07:04:18.717Z,41.23
2019-03-19T07:07:01.686Z,39.87
2019-03-19T07:09:17.988Z,28.37
2019-03-19T07:11:46.627Z,42.70
2019-03-19T07:14:16.369Z,29.33
2019-03-19T07:16:44.981Z,36.07
2019-03-19T07:19:17.834Z,35.00
2019-03-19T07:21:46.768Z,47.30
2019-03-19T07:24:15.567Z,42.53
2019-03-19T07:26:44.327Z,31.57
2019-03-19T07:29:13.032Z,32.17
2019-03-19T07:31:41.724Z,44.17
2019-03-19T07:34:10.396Z,46.57
2019-03-19T07:36:38.994Z,44.47
2019-03-19T07:39:08.520Z,33.50
2019-03-19T07:41:37.084Z,40.83
2019-03-19T07:44:05.660Z,39.37
2019-03-19T07:46:34.267Z,38.97
2019-03-19T07:49:02.851Z,39.00
2019-03-19T07:51:31.477Z,40.93
2019-03-19T07:54:00.398Z,39.67
2019-03-19T07:56:29.395Z,45.93
2019-03-19T07:58:58.011Z,39.30
2019-03-19T08:01:26.601Z,39.00
2019-03-19T08:03:55.206Z,37.23
2019-03-19T08:06:23.926Z,43.30
2019-03-19T08:08:52.565Z,29.27
2019-03-19T08:11:21.201Z,34.67
2019-03-19T08:13:51.952Z,44.97
2019-03-19T08:16:27.398Z,44.23
2019-03-19T08:18:50.627Z,38.57
2019-03-19T08:21:19.233Z,30.87
2019-03-19T08:23:47.841Z,41.53
2019-03-19T08:26:16.476Z,34.63
2019-03-19T08:28:54.917Z,39.40
2019-03-19T08:31:15.556Z,36.60
2019-03-19T08:33:46.870Z,38.27
2019-03-19T08:36:17.994Z,35.67
2019-03-19T08:38:46.590Z,34.60
2019-03-19T08:41:15.171Z,36.23
2019-03-19T08:43:43.853Z,38.67
2019-03-19T08:46:12.488Z,36.77
2019-03-19T08:48:41.099Z,27.70
2019-03-19T08:51:09.659Z,30.40
2019-03-19T08:53:38.285Z,31.20
2019-03-19T08:56:06.933Z,37.67
2019-03-19T08:58:35.660Z,35.03
2019-03-19T09:01:05.381Z,37.67
2019-03-19T09:03:34.188Z,35.10
2019-03-19T09:06:02.904Z,43.07
2019-03-19T09:08:31.606Z,29.90
2019-03-19T09:11:00.210Z,41.30
2019-03-19T09:13:28.849Z,29.63
2019-03-19T09:15:57.540Z,33.00
2019-03-19T09:18:26.154Z,31.83
2019-03-19T09:20:54.743Z,35.47
2019-03-19T09:23:23.376Z,32.17
2019-03-19T09:25:51.977Z,31.13
2019-03-19T09:28:20.650Z,35.23
2019-03-19T09:30:49.245Z,31.13
2019-03-19T09:33:20.080Z,27.93
2019-03-19T09:35:48.741Z,26.93
2019-03-19T09:38:17.621Z,32.60
2019-03-19T09:40:47.990Z,23.53
2019-03-19T09:43:17.713Z,30.47
2019-03-19T09:45:46.528Z,30.00
2019-03-19T09:48:16.772Z,26.47
2019-03-19T09:50:45.353Z,32.53
2019-03-19T09:53:13.969Z,27.30
2019-03-19T09:55:42.604Z,22.40
2019-03-19T09:58:11.693Z,25.23
2019-03-19T10:00:40.435Z,26.37
2019-03-19T10:03:09.104Z,21.80
2019-03-19T10:05:37.755Z,19.37
2019-03-19T10:08:06.389Z,24.17
2019-03-19T10:10:35.208Z,20.60
2019-03-19T10:13:03.967Z,18.00
2019-03-19T10:15:35.466Z,14.73
2019-03-19T10:18:04.187Z,18.60
2019-03-19T10:20:32.861Z,12.43
2019-03-19T10:23:01.471Z,12.23
2019-03-19T10:25:30.054Z,11.83
2019-03-19T10:27:58.673Z,17.40
2019-03-19T10:30:27.315Z,16.07
2019-03-19T10:32:55.956Z,11.90
2019-03-19T10:35:24.685Z,15.23
2019-03-19T10:37:53.517Z,13.30
2019-03-19T10:40:22.237Z,17.20
2019-03-19T10:42:50.856Z,16.40
2019-03-19T10:45:19.524Z,21.93
2019-03-19T10:47:48.191Z,16.33
2019-03-19T10:50:19.770Z,15.03
2019-03-19T10:52:48.401Z,12.47
2019-03-19T10:55:17.125Z,16.70
2019-03-19T10:57:45.834Z,11.57
2019-03-19T11:00:19.790Z,11.57
2019-03-19T11:02:48.423Z,12.67
2019-03-19T11:05:18.156Z,13.90
2019-03-19T11:07:46.854Z,11.53
2019-03-19T11:10:17.859Z,12.17
2019-03-19T11:12:46.463Z,21.70
2019-03-19T11:15:17.750Z,9.90
2019-03-19T11:17:46.441Z,12.10
2019-03-19T11:20:17.281Z,23.57
2019-03-19T11:22:45.924Z,15.27
2019-03-19T11:25:16.748Z,10.47
2019-03-19T11:27:45.472Z,14.53
2019-03-19T11:30:16.845Z,10.30
2019-03-19T11:32:45.524Z,7.53
2019-03-19T11:35:16.464Z,11.10
2019-03-19T11:37:44.520Z,14.60
2019-03-19T11:40:13.770Z,9.40
2019-03-19T11:42:42.411Z,10.20
2019-03-19T11:45:12.221Z,9.97
2019-03-19T11:47:41.075Z,11.03
2019-03-19T11:50:28.112Z,12.20
2019-03-19T11:52:57.059Z,15.67
2019-03-19T11:55:25.713Z,14.50
2019-03-19T11:57:54.325Z,26.33
2019-03-19T12:00:49.817Z,17.00
2019-03-19T12:03:18.467Z,16.20
2019-03-19T12:05:47.218Z,19.23
2019-03-19T12:08:18.964Z,19.97
2019-03-19T12:10:47.601Z,14.73
2019-03-19T12:13:17.204Z,9.77
2019-03-19T12:15:45.944Z,11.60
2019-03-19T12:18:14.613Z,12.70
2019-03-19T12:20:43.517Z,19.27
2019-03-19T12:23:12.394Z,10.23
2019-03-19T12:25:41.291Z,11.67
2019-03-19T12:28:09.926Z,6.90
2019-03-19T12:30:38.799Z,10.37
2019-03-19T12:33:07.493Z,8.23
2019-03-19T12:35:36.273Z,9.97
2019-03-19T12:38:05.023Z,6.57
2019-03-19T12:40:37.305Z,8.43
2019-03-19T12:43:04.261Z,8.83
2019-03-19T12:45:32.910Z,5.30
2019-03-19T12:48:01.630Z,7.60
2019-03-19T12:50:30.320Z,6.47
2019-03-19T12:52:58.995Z,9.47
2019-03-19T12:55:46.977Z,13.87
2019-03-19T12:58:18.255Z,15.60
2019-03-19T13:00:46.884Z,10.07
2019-03-19T13:03:19.119Z,27.00
2019-03-19T13:05:48.013Z,19.03
2019-03-19T13:08:17.199Z,8.27
2019-03-19T13:10:49.653Z,8.43
2019-03-19T13:13:18.293Z,11.37
2019-03-19T13:15:47.074Z,10.17
2019-03-19T13:18:15.921Z,8.20
2019-03-19T13:20:44.660Z,10.33
2019-03-19T13:23:13.334Z,13.63
2019-03-19T13:25:42.152Z,5.53
2019-03-19T13:28:10.766Z,6.97
2019-03-19T13:30:44.881Z,8.10
2019-03-19T13:33:11.379Z,11.87
2019-03-19T13:35:40.035Z,14.20
2019-03-19T13:38:08.722Z,10.53
2019-03-19T13:40:37.409Z,10.03
2019-03-19T13:43:06.048Z,8.70
2019-03-19T13:45:34.747Z,10.27
2019-03-19T13:48:03.692Z,12.10
2019-03-19T13:50:32.353Z,16.50
2019-03-19T13:53:00.956Z,10.13
2019-03-19T13:55:29.648Z,9.27
2019-03-19T13:57:58.374Z,5.63
2019-03-19T14:00:27.049Z,9.53
2019-03-19T14:02:55.697Z,6.67
2019-03-19T14:05:24.303Z,8.63
2019-03-19T14:07:52.913Z,3.73
2019-03-19T14:10:21.774Z,8.83
2019-03-19T14:12:50.426Z,8.43
2019-03-19T14:15:19.087Z,13.57
2019-03-19T14:17:47.725Z,11.50
2019-03-19T14:20:16.679Z,9.27
2019-03-19T14:22:45.734Z,4.73
2019-03-19T14:25:14.594Z,7.00
2019-03-19T14:27:43.235Z,5.80
2019-03-19T14:30:16.808Z,4.27
2019-03-19T14:32:45.428Z,6.20
2019-03-19T14:35:19.129Z,5.43
2019-03-19T14:37:47.803Z,14.37
2019-03-19T14:40:19.099Z,4.13
2019-03-19T14:42:47.712Z,7.73
2019-03-19T14:45:21.602Z,10.53
2019-03-19T14:47:50.220Z,6.10
2019-03-19T14:50:18.812Z,5.23
2019-03-19T14:52:47.481Z,13.37
2019-03-19T14:55:16.269Z,6.53
2019-03-19T14:57:44.902Z,7.30
2019-03-19T15:00:15.969Z,6.50
2019-03-19T15:02:44.728Z,9.77
2019-03-19T15:05:13.546Z,4.30
2019-03-19T15:07:42.241Z,5.70
2019-03-19T15:10:14.427Z,10.67
2019-03-19T15:12:43.122Z,5.80
2019-03-19T15:15:12.671Z,9.60
2019-03-19T15:17:41.316Z,10.13
2019-03-19T15:20:15.277Z,5.20
2019-03-19T15:22:43.887Z,7.83
2019-03-19T15:25:12.746Z,6.97
2019-03-19T15:27:41.355Z,13.20
2019-03-19T15:30:10.348Z,9.03
2019-03-19T15:32:39.007Z,10.80
2019-03-19T15:35:09.441Z,12.77
2019-03-19T15:37:38.145Z,5.67
2019-03-19T15:40:10.221Z,6.90
2019-03-19T15:42:38.984Z,6.10
2019-03-19T15:45:11.057Z,6.80
2019-03-19T15:47:41.638Z,14.67
2019-03-19T15:50:15.716Z,5.13
2019-03-19T15:52:44.306Z,5.33
2019-03-19T15:55:12.928Z,6.50
2019-03-19T15:57:41.567Z,4.07
2019-03-19T16:00:12.490Z,8.27
2019-03-19T16:02:41.103Z,12.67
2019-03-19T16:05:12.334Z,7.70
2019-03-19T16:07:40.956Z,10.60
2019-03-19T16:10:09.926Z,6.93
2019-03-19T16:12:38.546Z,8.47
2019-03-19T16:15:08.530Z,6.90
2019-03-19T16:17:37.156Z,15.37
2019-03-19T16:20:06.902Z,5.80
2019-03-19T16:22:35.500Z,9.70
2019-03-19T16:25:04.234Z,9.87
2019-03-19T16:27:32.862Z,4.40
2019-03-19T16:30:04.334Z,4.60
2019-03-19T16:32:33.026Z,6.70
2019-03-19T16:35:01.668Z,9.27
2019-03-19T16:37:30.328Z,7.90
2019-03-19T16:39:58.951Z,3.93
2019-03-19T16:42:27.580Z,5.20
2019-03-19T16:44:56.186Z,5.50
2019-03-19T16:47:24.820Z,7.73
2019-03-19T16:49:53.526Z,4.30
2019-03-19T16:52:22.130Z,4.17
2019-03-19T16:54:50.807Z,3.30
2019-03-19T16:57:19.404Z,4.27
2019-03-19T16:59:48.117Z,3.60
2019-03-19T17:02:37.664Z,3.33
2019-03-19T17:05:06.609Z,3.07
2019-03-19T17:07:35.424Z,3.97
2019-03-19T17:10:23.362Z,3.37
2019-03-19T17:12:52.047Z,3.33
2019-03-19T17:15:20.646Z,3.90
2019-03-19T17:17:49.458Z,7.53
2019-03-19T17:20:18.082Z,4.17
2019-03-19T17:22:46.669Z,3.20
2019-03-19T17:25:16.088Z,3.90
2019-03-19T17:27:44.764Z,4.43
2019-03-19T17:30:18.876Z,3.63
2019-03-19T17:32:47.541Z,3.90
2019-03-19T17:35:18.505Z,12.17
2019-03-19T17:37:47.136Z,4.73
2019-03-19T17:40:17.181Z,9.60
2019-03-19T17:42:45.847Z,5.17
2019-03-19T17:45:14.543Z,4.60
2019-03-19T17:47:43.231Z,4.83
2019-03-19T17:50:14.163Z,4.70
2019-03-19T17:52:42.822Z,6.23
2019-03-19T17:55:11.669Z,5.27
2019-03-19T17:57:40.294Z,4.83
2019-03-19T18:00:10.470Z,5.17
2019-03-19T18:02:41.064Z,9.07
2019-03-19T18:05:09.845Z,5.00
2019-03-19T18:07:38.576Z,5.13
2019-03-19T18:10:07.609Z,5.60
2019-03-19T18:12:36.397Z,6.17
2019-03-19T18:15:05.717Z,6.80
2019-03-19T18:17:34.349Z,5.73
2019-03-19T18:20:03.456Z,6.77
2019-03-19T18:22:32.278Z,7.17
2019-03-19T18:25:00.944Z,7.83
2019-03-19T18:27:29.664Z,8.63
2019-03-19T18:29:58.266Z,8.97
2019-03-19T18:32:34.719Z,8.57
2019-03-19T18:34:57.213Z,8.67
2019-03-19T18:37:25.836Z,9.80
2019-03-19T18:39:54.435Z,9.10
2019-03-19T18:42:23.092Z,8.70
2019-03-19T18:44:54.870Z,10.90
2019-03-19T18:47:23.728Z,11.80
2019-03-19T18:49:52.332Z,10.43
2019-03-19T18:52:20.952Z,10.00
2019-03-19T18:54:49.599Z,11.53
2019-03-19T18:57:18.255Z,10.90
2019-03-19T18:59:46.902Z,10.43
2019-03-19T19:02:15.560Z,8.70
2019-03-19T19:04:44.144Z,10.90
2019-03-19T19:07:33.154Z,10.47
2019-03-19T19:10:01.751Z,11.57
2019-03-19T19:12:30.367Z,10.80
2019-03-19T19:14:59.245Z,10.73
2019-03-19T19:17:28.151Z,12.13
2019-03-19T19:19:56.801Z,10.50
2019-03-19T19:22:25.433Z,11.97
2019-03-19T19:24:54.077Z,11.83
2019-03-19T19:27:22.751Z,12.27
2019-03-19T19:29:51.421Z,13.90
2019-03-19T19:32:20.066Z,12.13
2019-03-19T19:34:48.735Z,12.73
2019-03-19T19:37:17.388Z,11.50
2019-03-19T19:39:46.009Z,12.60
2019-03-19T19:42:18.010Z,15.00
2019-03-19T19:44:46.766Z,12.43
2019-03-19T19:47:15.460Z,12.37
2019-03-19T19:49:44.126Z,13.53
2019-03-19T19:52:12.723Z,14.43
2019-03-19T19:54:41.324Z,13.97
2019-03-19T19:57:12.066Z,11.40
2019-03-19T20:00:01.942Z,12.33
2019-03-19T20:02:30.363Z,11.70
2019-03-19T20:05:03.433Z,12.60
2019-03-19T20:07:29.335Z,11.97
2019-03-19T20:09:57.983Z,12.77
2019-03-19T20:12:26.650Z,11.40
2019-03-19T20:14:55.480Z,21.40
2019-03-19T20:17:24.091Z,13.53
2019-03-19T20:19:52.686Z,13.40
2019-03-19T20:22:21.286Z,13.17
2019-03-19T20:24:50.163Z,12.63
2019-03-19T20:27:18.773Z,12.50
2019-03-19T20:29:47.637Z,13.07
2019-03-19T20:32:17.560Z,11.93
2019-03-19T20:34:46.156Z,14.23
2019-03-19T20:37:14.847Z,12.37
2019-03-19T20:39:43.425Z,12.53
2019-03-19T20:42:31.749Z,12.63
2019-03-19T20:45:00.384Z,14.57
2019-03-19T20:47:28.979Z,12.23
2019-03-19T20:49:57.617Z,12.63
2019-03-19T20:52:26.217Z,13.53
2019-03-19T20:54:54.829Z,12.83
2019-03-19T20:57:23.513Z,14.67
2019-03-19T20:59:52.153Z,13.73
2019-03-19T21:02:40.088Z,15.27
2019-03-19T21:05:08.810Z,16.07
2019-03-19T21:07:37.435Z,16.07
2019-03-19T21:10:06.418Z,17.03
2019-03-19T21:12:54.350Z,17.60
2019-03-19T21:15:23.876Z,18.37
2019-03-19T21:17:52.493Z,17.83
2019-03-19T21:20:21.291Z,17.07
2019-03-19T21:22:49.949Z,17.77
2019-03-19T21:25:18.642Z,17.20
2019-03-19T21:27:47.289Z,23.87
2019-03-19T21:30:18.934Z,17.90
2019-03-19T21:32:47.537Z,15.80
2019-03-19T21:35:19.001Z,16.70
2019-03-19T21:37:47.698Z,18.20
2019-03-19T21:40:18.993Z,17.10
2019-03-19T21:42:47.591Z,17.83
2019-03-19T21:45:17.555Z,16.87
2019-03-19T21:47:46.183Z,18.13
2019-03-19T21:50:15.438Z,19.63
2019-03-19T21:52:44.420Z,18.77
2019-03-19T21:55:14.198Z,19.13
2019-03-19T21:57:43.130Z,21.57
2019-03-19T22:00:13.772Z,18.07
2019-03-19T22:02:42.416Z,20.53
2019-03-19T22:05:11.121Z,20.30
2019-03-19T22:07:39.770Z,18.83
2019-03-19T22:10:10.847Z,21.53
2019-03-19T22:12:39.543Z,25.67
2019-03-19T22:15:12.968Z,23.17
2019-03-19T22:17:41.820Z,20.63
2019-03-19T22:20:10.477Z,23.13
2019-03-19T22:22:39.373Z,20.60
2019-03-19T22:25:10.925Z,28.30
2019-03-19T22:27:39.545Z,29.63
2019-03-19T22:30:10.332Z,22.93
2019-03-19T22:32:38.993Z,24.77
2019-03-19T22:35:07.958Z,20.23
2019-03-19T22:37:37.402Z,21.27
2019-03-19T22:40:07.548Z,20.53
2019-03-19T22:42:36.135Z,19.83
2019-03-19T22:45:05.797Z,20.97
2019-03-19T22:47:34.420Z,22.23
2019-03-19T22:50:03.119Z,19.17
2019-03-19T22:52:34.780Z,18.47
2019-03-19T22:55:04.656Z,17.63
2019-03-19T22:57:52.673Z,16.67
2019-03-19T23:00:36.755Z,15.73
2019-03-19T23:03:05.869Z,18.43
2019-03-19T23:05:34.507Z,19.20
2019-03-19T23:08:03.115Z,14.83
2019-03-19T23:10:31.787Z,15.40
2019-03-19T23:13:00.381Z,15.17
2019-03-19T23:15:29.024Z,21.07
2019-03-19T23:17:57.627Z,13.77
2019-03-19T23:20:26.566Z,17.13
2019-03-19T23:22:58.176Z,14.23
2019-03-19T23:25:26.805Z,15.57
2019-03-19T23:27:55.412Z,14.33
2019-03-19T23:30:24.067Z,11.97
2019-03-19T23:32:52.685Z,14.00
2019-03-19T23:35:21.345Z,14.03
2019-03-19T23:37:50.186Z,11.00
2019-03-19T23:40:18.797Z,9.57
2019-03-19T23:42:47.391Z,11.10
2019-03-19T23:45:16.059Z,9.87
2019-03-19T23:47:44.665Z,14.90
2019-03-19T23:50:13.348Z,8.20
2019-03-19T23:52:41.981Z,8.03
2019-03-19T23:55:10.607Z,6.73
2019-03-19T23:57:39.197Z,6.50
